Time;durP1;ratioP1;P1;durP2;ratioP2;P2;SDS_P1;SDS_P2;PMS_P1;PMS_P2;Temp;Humidity;BMP_temperature;BMP_pressure;BME280_temperature;BME280_humidity;BME280_pressure;Samples;Min_cycle;Max_cycle;Signal;HPM_P1;HPM_P2
2023/09/13 00:02:18;;;;;;;0.40;0.30;;;;;;;18.31;67.94;95673.31;5068354;28;20512;-55
2023/09/13 00:04:46;;;;;;;0.40;0.30;;;;;;;18.45;67.66;95676.69;5074879;28;20437;-56
2023/09/13 00:07:15;;;;;;;0.50;0.30;;;;;;;18.36;68.42;95670.50;5074745;28;20464;-56
2023/09/13 00:09:43;;;;;;;0.40;0.23;;;;;;;18.59;66.80;95673.94;5074858;28;20425;-56
2023/09/13 00:12:12;;;;;;;0.40;0.30;;;;;;;18.66;66.97;95683.13;5073588;28;20523;-56
2023/09/13 00:14:42;;;;;;;0.50;0.40;;;;;;;18.75;66.34;95680.47;5074794;28;20510;-55
2023/09/13 00:17:10;;;;;;;0.50;0.30;;;;;;;18.71;66.75;95688.38;5073839;28;20448;-56
2023/09/13 00:19:39;;;;;;;0.50;0.30;;;;;;;18.72;66.96;95687.25;5074810;28;20822;-56
2023/09/13 00:22:07;;;;;;;0.50;0.30;;;;;;;18.82;66.74;95686.19;5073817;28;21055;-55
2023/09/13 00:24:35;;;;;;;0.47;0.27;;;;;;;18.80;66.88;95683.78;5074261;28;20461;-56
2023/09/13 00:27:04;;;;;;;0.60;0.50;;;;;;;18.51;67.22;95688.91;5074601;28;20527;-56
2023/09/13 00:29:34;;;;;;;9.60;0.60;;;;;;;18.71;66.63;95684.88;5074682;28;20440;-56
2023/09/13 00:32:04;;;;;;;0.50;0.30;;;;;;;18.84;66.95;95679.41;5074331;28;20948;-55
2023/09/13 00:34:32;;;;;;;0.40;0.20;;;;;;;18.71;66.84;95692.94;5073830;28;20469;-55
2023/09/13 00:37:01;;;;;;;0.40;0.20;;;;;;;18.78;66.68;95690.56;5074342;28;20532;-56
2023/09/13 00:39:29;;;;;;;0.40;0.20;;;;;;;18.72;66.50;95681.09;5074278;28;20472;-56
2023/09/13 00:41:58;;;;;;;0.50;0.30;;;;;;;18.65;67.09;95689.59;5046423;28;20479;-56
2023/09/13 00:44:26;;;;;;;0.53;0.30;;;;;;;18.59;67.03;95676.63;5073257;28;20441;-56
2023/09/13 00:46:55;;;;;;;0.50;0.30;;;;;;;18.48;67.86;95686.06;5074195;28;20441;-56
2023/09/13 00:49:26;;;;;;;0.40;0.20;;;;;;;18.56;67.96;95686.09;5074061;28;20880;-56
2023/09/13 00:51:56;;;;;;;0.50;0.30;;;;;;;18.33;67.79;95690.69;5073565;28;20475;-56
2023/09/13 00:54:25;;;;;;;0.40;0.30;;;;;;;18.49;67.46;95682.28;5073628;28;20448;-56
2023/09/13 00:56:53;;;;;;;0.47;0.30;;;;;;;18.48;67.90;95689.53;5073511;28;20971;-56
2023/09/13 00:59:24;;;;;;;0.40;0.30;;;;;;;18.45;68.18;95689.31;5073411;28;20495;-56
2023/09/13 01:01:52;;;;;;;0.40;0.20;;;;;;;18.48;67.68;95680.69;5073509;28;20474;-56
2023/09/13 01:04:21;;;;;;;0.60;0.30;;;;;;;18.49;68.06;95688.44;5073470;28;21022;-56
2023/09/13 01:06:51;;;;;;;0.50;0.37;;;;;;;18.39;68.46;95697.50;5073392;28;20437;-56
2023/09/13 01:09:19;;;;;;;0.53;0.50;;;;;;;18.54;67.82;95693.69;5073240;28;20426;-55
2023/09/13 01:11:48;;;;;;;0.40;0.30;;;;;;;18.21;69.05;95692.38;5073547;28;20999;-56
2023/09/13 01:14:18;;;;;;;0.50;0.40;;;;;;;18.42;68.41;95693.41;5073250;28;21091;-55
2023/09/13 01:16:52;;;;;;;0.40;0.30;;;;;;;18.33;68.93;95687.22;5072757;28;20472;-55
2023/09/13 01:19:44;;;;;;;0.40;0.20;;;;;;;18.29;69.22;95689.72;5072765;28;20447;-55
2023/09/13 01:22:39;;;;;;;0.50;0.50;;;;;;;17.95;70.83;95700.28;5072555;28;20481;-55
2023/09/13 01:25:35;;;;;;;0.40;0.30;;;;;;;18.00;70.44;95694.78;5072266;28;20502;-55
2023/09/13 01:28:13;;;;;;;6.53;0.43;;;;;;;18.19;69.46;95695.34;5073035;28;20441;-56
2023/09/13 01:30:43;;;;;;;0.50;0.30;;;;;;;18.28;69.63;95690.84;5073135;28;20925;-56
2023/09/13 01:33:11;;;;;;;0.40;0.20;;;;;;;18.35;68.85;95688.50;5072850;28;20444;-55
2023/09/13 01:35:40;;;;;;;0.40;0.20;;;;;;;18.32;68.94;95691.78;5072687;28;20552;-56
2023/09/13 01:38:08;;;;;;;3.60;0.40;;;;;;;17.91;70.85;95701.97;5072520;28;20434;-55
2023/09/13 01:40:42;;;;;;;0.50;0.30;;;;;;;17.88;71.19;95699.13;5073472;28;20445;-55
2023/09/13 01:43:11;;;;;;;0.47;0.40;;;;;;;17.86;70.91;95693.28;5072124;28;20863;-55
2023/09/13 01:45:39;;;;;;;0.40;0.30;;;;;;;17.91;71.08;95691.22;5072872;28;20942;-55
2023/09/13 01:48:11;;;;;;;0.40;0.30;;;;;;;17.86;71.21;95694.03;5072573;28;20442;-55
2023/09/13 01:50:40;;;;;;;0.40;0.20;;;;;;;17.73;72.29;95698.38;5072445;28;20445;-56
2023/09/13 01:53:09;;;;;;;0.40;0.20;;;;;;;17.88;71.89;95691.06;5071407;28;20445;-55
2023/09/13 01:55:37;;;;;;;0.40;0.20;;;;;;;17.99;71.04;95690.50;5060740;28;20500;-55
2023/09/13 01:58:05;;;;;;;0.50;0.30;;;;;;;17.60;72.67;95696.56;5070670;28;20810;-55
2023/09/13 02:00:34;;;;;;;0.70;0.33;;;;;;;17.48;73.68;95692.81;5072352;28;20811;-55
2023/09/13 02:03:02;;;;;;;0.50;0.30;;;;;;;17.61;72.33;95694.66;5071931;28;20559;-56
2023/09/13 02:05:32;;;;;;;0.40;0.30;;;;;;;17.43;74.65;95691.00;5072210;28;20441;-55
2023/09/13 02:08:00;;;;;;;0.50;0.30;;;;;;;17.72;72.29;95691.44;5072267;28;20973;-55
2023/09/13 02:10:28;;;;;;;0.60;0.40;;;;;;;17.69;72.94;95692.03;5072169;28;20440;-55
2023/09/13 02:12:58;;;;;;;0.40;0.20;;;;;;;17.90;72.32;95691.56;5072439;28;20441;-55
2023/09/13 02:15:27;;;;;;;0.40;0.30;;;;;;;17.99;73.02;95690.50;5071500;28;20433;-56
2023/09/13 02:17:56;;;;;;;0.40;0.30;;;;;;;17.55;72.03;95632.34;5071886;28;20441;-56
2023/09/13 02:20:24;;;;;;;0.50;0.30;;;;;;;17.89;71.38;95693.44;5071596;28;20949;-55
2023/09/13 02:22:54;;;;;;;0.60;0.40;;;;;;;17.84;71.63;95698.13;5071741;28;20477;-56
2023/09/13 02:25:22;;;;;;;0.40;0.30;;;;;;;17.67;71.77;95678.16;5071637;28;20472;-56
2023/09/13 02:27:50;;;;;;;0.40;0.20;;;;;;;18.01;72.26;95695.56;5071779;28;20441;-56
2023/09/13 02:30:19;;;;;;;0.40;0.30;;;;;;;17.81;71.75;95693.41;5071769;28;20444;-56
2023/09/13 02:32:47;;;;;;;0.40;0.30;;;;;;;17.86;71.06;95693.28;5071499;28;20445;-56
2023/09/13 02:35:15;;;;;;;0.60;0.40;;;;;;;17.52;71.35;95659.75;5071491;28;20465;-56
2023/09/13 02:37:44;;;;;;;0.50;0.30;;;;;;;17.59;72.87;95703.00;5070702;28;20442;-56
2023/09/13 02:40:14;;;;;;;0.40;0.30;;;;;;;17.25;74.47;95701.91;5071053;28;20438;-56
2023/09/13 02:42:42;;;;;;;5.20;0.30;;;;;;;17.20;76.14;95708.16;5070311;28;20570;-55
2023/09/13 02:45:12;;;;;;;0.50;0.40;;;;;;;17.10;76.87;95711.06;5071116;28;20778;-56
2023/09/13 02:47:40;;;;;;;0.40;0.30;;;;;;;17.11;77.75;95701.91;5071390;28;20524;-54
2023/09/13 02:50:09;;;;;;;0.50;0.30;;;;;;;17.13;77.42;95699.72;5071444;28;20433;-55
2023/09/13 02:52:37;;;;;;;0.50;0.30;;;;;;;17.37;74.90;95705.63;5070900;28;20477;-55
2023/09/13 02:55:07;;;;;;;0.40;0.30;;;;;;;17.24;75.21;95698.41;5071659;28;20511;-54
2023/09/13 02:57:37;;;;;;;0.40;0.20;;;;;;;17.24;75.25;95693.06;5071092;28;20441;-54
2023/09/13 03:00:06;;;;;;;0.50;0.43;;;;;;;17.21;75.33;95696.34;5071265;28;20467;-55
2023/09/13 03:02:35;;;;;;;0.40;0.30;;;;;;;17.31;75.17;95695.31;5071328;28;20489;-55
2023/09/13 03:05:06;;;;;;;1.10;0.40;;;;;;;17.29;74.76;95705.56;5070611;28;20528;-55
2023/09/13 03:07:34;;;;;;;0.50;0.30;;;;;;;17.11;76.04;95696.56;5070855;28;20513;-55
2023/09/13 03:10:04;;;;;;;0.50;0.20;;;;;;;16.70;76.94;95635.03;5071300;28;20872;-55
2023/09/13 03:12:33;;;;;;;0.40;0.30;;;;;;;17.28;76.49;95701.31;5071108;28;20441;-55
2023/09/13 03:15:05;;;;;;;0.40;0.20;;;;;;;17.34;75.29;95689.34;5071565;28;20447;-56
2023/09/13 03:17:33;;;;;;;0.40;0.20;;;;;;;17.42;75.03;95697.47;5070658;28;20445;-56
2023/09/13 03:20:02;;;;;;;0.40;0.30;;;;;;;17.07;76.49;95700.94;5071019;28;20472;-55
2023/09/13 03:22:30;;;;;;;0.40;0.30;;;;;;;16.99;76.70;95709.69;5071396;28;20874;-55
2023/09/13 03:24:58;;;;;;;0.40;0.30;;;;;;;17.13;75.88;95708.56;5070982;28;20433;-56
2023/09/13 03:27:27;;;;;;;0.40;0.30;;;;;;;17.27;75.29;95700.50;5070836;28;20543;-56
2023/09/13 03:29:55;;;;;;;0.40;0.30;;;;;;;17.39;74.69;95708.00;5070762;28;20502;-55
2023/09/13 03:32:25;;;;;;;0.40;0.30;;;;;;;17.29;73.87;95698.31;5071153;28;20433;-55
2023/09/13 03:34:53;;;;;;;0.50;0.40;;;;;;;17.39;73.75;95711.47;5070473;28;20481;-55
2023/09/13 03:37:21;;;;;;;0.50;0.30;;;;;;;17.43;73.85;95714.34;5070731;28;20441;-55
2023/09/13 03:39:50;;;;;;;0.70;0.37;;;;;;;17.62;73.15;95709.66;5068176;28;20445;-55
2023/09/13 03:42:18;;;;;;;0.57;0.57;;;;;;;16.92;76.03;95714.66;5059990;28;20434;-55
2023/09/13 03:44:46;;;;;;;0.40;0.27;;;;;;;16.50;81.24;95713.81;5070509;28;20453;-55
2023/09/13 03:47:15;;;;;;;0.50;0.40;;;;;;;16.22;84.47;95722.09;5070764;28;20884;-55
2023/09/13 03:49:45;;;;;;;0.50;0.40;;;;;;;16.17;85.83;95722.97;5071166;28;20455;-56
2023/09/13 03:52:13;;;;;;;0.50;0.50;;;;;;;15.52;81.93;95579.78;5071005;28;20445;-55
2023/09/13 03:54:41;;;;;;;0.53;0.53;;;;;;;16.16;84.46;95721.41;5070960;28;20542;-55
2023/09/13 03:57:09;;;;;;;0.40;0.30;;;;;;;16.18;83.66;95721.09;5071124;28;20837;-54
2023/09/13 03:59:38;;;;;;;0.40;0.20;;;;;;;16.37;81.70;95722.63;5070334;28;20437;-55
2023/09/13 04:02:06;;;;;;;0.50;0.30;;;;;;;16.66;79.97;95721.59;5070376;28;20509;-54
2023/09/13 04:04:34;;;;;;;0.40;0.30;;;;;;;16.69;80.11;95726.34;5070885;28;20572;-55
2023/09/13 04:07:05;;;;;;;0.53;0.40;;;;;;;16.70;80.17;95722.56;5071227;28;20947;-54
2023/09/13 04:09:33;;;;;;;0.50;0.30;;;;;;;16.81;80.20;95727.44;5070752;28;21154;-54
2023/09/13 04:12:01;;;;;;;0.90;0.90;;;;;;;16.67;81.21;95723.97;5069784;28;20446;-54
2023/09/13 04:14:29;;;;;;;0.40;0.30;;;;;;;16.73;80.24;95721.97;5070829;28;20491;-54
2023/09/13 04:16:58;;;;;;;0.70;0.30;;;;;;;16.93;79.46;95718.91;5073872;28;20449;-55
2023/09/13 04:19:26;;;;;;;0.60;0.37;;;;;;;16.95;78.86;95719.41;5074586;28;20464;-55
2023/09/13 04:21:55;;;;;;;0.50;0.40;;;;;;;17.04;78.25;95731.78;5074182;28;20520;-55
2023/09/13 04:24:24;;;;;;;0.40;0.20;;;;;;;17.05;77.84;95729.91;5074225;28;21011;-56
2023/09/13 04:26:53;;;;;;;4.00;0.30;;;;;;;16.74;79.86;95732.41;5073638;28;20502;-55
2023/09/13 04:29:21;;;;;;;0.50;0.40;;;;;;;16.70;80.43;95735.94;5074130;28;20499;-55
2023/09/13 04:31:49;;;;;;;0.50;0.30;;;;;;;16.30;81.31;95687.44;5073864;28;20433;-55
2023/09/13 04:34:18;;;;;;;0.50;0.30;;;;;;;16.23;84.44;95735.19;5073959;28;20826;-54
2023/09/13 04:36:46;;;;;;;0.50;0.37;;;;;;;15.76;88.25;95741.56;5073170;28;20437;-55
2023/09/13 04:39:14;;;;;;;0.50;0.30;;;;;;;15.85;89.70;95747.84;5073537;28;20815;-54
2023/09/13 04:41:44;;;;;;;2.73;0.50;;;;;;;15.98;88.83;95735.63;5073161;28;20490;-54
2023/09/13 04:44:12;;;;;;;0.60;0.57;;;;;;;16.32;85.04;95706.66;5073478;28;20473;-54
2023/09/13 04:46:40;;;;;;;0.50;0.30;;;;;;;16.46;82.72;95720.88;5073870;28;20863;-54
2023/09/13 04:49:09;;;;;;;0.70;0.50;;;;;;;16.24;83.77;95720.72;5073828;28;20475;-56
2023/09/13 04:51:37;;;;;;;0.50;0.30;;;;;;;16.50;84.43;95740.56;5072770;28;20444;-54
2023/09/13 04:54:06;;;;;;;0.47;0.30;;;;;;;16.87;82.58;95733.50;5073958;28;20441;-56
2023/09/13 04:56:34;;;;;;;0.40;0.30;;;;;;;17.14;79.71;95736.13;5073985;28;20448;-55
2023/09/13 04:59:04;;;;;;;0.40;0.20;;;;;;;17.18;77.74;95739.78;5072800;28;20519;-55
2023/09/13 05:01:33;;;;;;;0.43;0.27;;;;;;;17.18;82.14;95729.06;5073319;28;20937;-71
2023/09/13 05:04:01;;;;;;;1.07;0.73;;;;;;;17.69;81.56;95729.56;5072694;28;20475;-70
2023/09/13 05:06:30;;;;;;;0.60;0.50;;;;;;;16.57;77.41;95606.41;5073293;28;20886;-70
2023/09/13 05:08:58;;;;;;;0.50;0.50;;;;;;;17.52;79.46;95729.44;5072885;28;20941;-70
2023/09/13 05:11:26;;;;;;;0.50;0.30;;;;;;;16.95;79.60;95735.47;5073138;28;20441;-70
2023/09/13 05:14:12;;;;;;;0.50;0.40;;;;;;;17.60;81.29;95735.97;5060023;28;20445;-71
2023/09/13 05:16:40;;;;;;;0.43;0.30;;;;;;;17.78;77.23;95676.81;5073499;28;20437;-71
2023/09/13 05:19:09;;;;;;;2.33;1.00;;;;;;;18.28;75.53;95731.09;5072579;28;20438;-70
2023/09/13 05:21:37;;;;;;;4.30;0.70;;;;;;;18.60;73.28;95716.56;5073348;28;20871;-70
2023/09/13 05:24:06;;;;;;;0.50;0.30;;;;;;;18.64;71.48;95717.56;5046641;28;20477;-60
2023/09/13 05:26:35;;;;;;;0.50;0.40;;;;;;;18.66;72.88;95723.41;5071619;28;20442;-56
2023/09/13 05:29:03;;;;;;;0.40;0.30;;;;;;;18.35;72.52;95671.59;5072562;28;20449;-53
2023/09/13 05:31:33;;;;;;;0.50;0.30;;;;;;;18.47;72.65;95722.84;5073091;28;20455;-53
2023/09/13 05:34:02;;;;;;;0.60;0.60;;;;;;;17.63;75.54;95719.28;5072869;28;20445;-54
2023/09/13 05:36:30;;;;;;;1.10;0.97;;;;;;;17.82;75.08;95722.56;5072591;28;20449;-53
2023/09/13 05:38:58;;;;;;;1.47;0.57;;;;;;;17.62;76.67;95725.72;5071800;28;20442;-52
2023/09/13 05:41:26;;;;;;;0.63;0.63;;;;;;;18.14;74.57;95718.84;5072259;28;20507;-53
2023/09/13 05:43:55;;;;;;;0.40;0.30;;;;;;;18.55;73.93;95724.78;5063196;28;20478;-52
2023/09/13 05:46:23;;;;;;;0.50;0.47;;;;;;;18.51;73.83;95723.81;5068632;28;20933;-52
2023/09/13 05:48:53;;;;;;;0.50;0.43;;;;;;;18.11;73.13;95727.50;5073114;28;20524;-53
2023/09/13 05:51:21;;;;;;;0.50;0.40;;;;;;;18.56;71.56;95723.69;5072360;28;20453;-54
2023/09/13 05:53:50;;;;;;;0.70;0.50;;;;;;;19.61;69.30;95709.09;5072818;28;21003;-53
2023/09/13 05:56:18;;;;;;;0.50;0.50;;;;;;;19.22;69.17;95709.19;5071895;28;20441;-53
2023/09/13 05:58:46;;;;;;;0.50;0.40;;;;;;;19.49;69.26;95716.19;5072572;28;20468;-53
2023/09/13 06:01:15;;;;;;;0.93;0.60;;;;;;;20.06;67.06;95714.13;5071974;28;20453;-53
2023/09/13 06:03:43;;;;;;;0.40;0.30;;;;;;;20.74;64.53;95715.84;5072203;28;20469;-52
2023/09/13 06:06:13;;;;;;;0.73;0.50;;;;;;;21.04;63.31;95719.34;5072015;28;20502;-52
2023/09/13 06:08:41;;;;;;;1.17;0.50;;;;;;;20.84;62.20;95691.25;5072563;28;20799;-52
2023/09/13 06:11:10;;;;;;;5.90;0.40;;;;;;;21.04;62.32;95712.06;5072016;28;20446;-52
2023/09/13 06:13:38;;;;;;;1.03;0.60;;;;;;;20.61;62.72;95671.06;5072417;28;20926;-52
2023/09/13 06:16:07;;;;;;;1.13;0.33;;;;;;;21.06;61.49;95723.34;5072550;28;20444;-52
2023/09/13 06:18:36;;;;;;;0.67;0.40;;;;;;;20.95;61.66;95719.38;5071844;28;20452;-52
2023/09/13 06:21:05;;;;;;;0.57;0.57;;;;;;;20.88;61.73;95730.69;5072119;28;20441;-52
2023/09/13 06:23:36;;;;;;;0.70;0.60;;;;;;;20.82;62.16;95701.56;5071954;28;20525;-50
2023/09/13 06:26:05;;;;;;;1.90;0.80;;;;;;;20.04;62.69;95652.53;5071608;28;20510;-50
2023/09/13 06:28:34;;;;;;;0.60;0.60;;;;;;;20.47;62.80;95708.97;5071515;28;20445;-50
2023/09/13 06:31:02;;;;;;;0.73;0.53;;;;;;;20.92;62.37;95712.75;5072126;28;20813;-51
2023/09/13 06:33:32;;;;;;;1.47;1.37;;;;;;;21.57;60.71;95718.72;5071427;28;20508;-51
2023/09/13 06:36:09;;;;;;;0.57;0.50;;;;;;;20.94;60.63;95720.53;5071822;28;20433;-51
2023/09/13 06:38:40;;;;;;;1.47;1.43;;;;;;;21.44;60.97;95720.56;5071375;28;20971;-51
2023/09/13 06:41:09;;;;;;;1.63;1.27;;;;;;;21.40;59.21;95722.34;5058344;28;20534;-51
2023/09/13 06:43:37;;;;;;;10.67;0.60;;;;;;;21.56;59.28;95717.13;5045665;28;20440;-50
2023/09/13 06:46:25;;;;;;;2.03;0.50;;;;;;;22.11;57.41;95696.84;5071495;28;21019;-50
2023/09/13 06:48:54;;;;;;;7.30;0.93;;;;;;;23.19;56.23;95718.97;5071617;28;20495;-49
2023/09/13 06:51:23;;;;;;;0.50;0.40;;;;;;;23.75;54.12;95706.41;5071736;28;20486;-49
2023/09/13 06:54:13;;;;;;;0.50;0.40;;;;;;;23.79;52.83;95704.56;5070612;28;20503;-49
2023/09/13 06:56:44;;;;;;;0.40;0.30;;;;;;;24.25;51.56;95690.41;5071057;28;21086;-49
2023/09/13 06:59:16;;;;;;;0.47;0.40;;;;;;;24.64;51.32;95707.69;5070279;28;20445;-49
2023/09/13 07:01:48;;;;;;;0.50;0.40;;;;;;;24.29;50.56;95701.31;5071594;28;20959;-49
2023/09/13 07:04:19;;;;;;;1.17;0.50;;;;;;;24.80;50.23;95702.28;5072062;28;20465;-49
2023/09/13 07:06:58;;;;;;;0.57;0.53;;;;;;;25.40;49.29;95706.44;5071426;28;20453;-50
2023/09/13 07:09:28;;;;;;;0.60;0.30;;;;;;;24.29;48.81;95683.16;5071308;28;20506;-55
2023/09/13 07:11:56;;;;;;;0.60;0.40;;;;;;;25.12;48.07;95706.56;5071829;28;20464;-53
2023/09/13 07:14:25;;;;;;;0.60;0.60;;;;;;;25.66;49.30;95703.91;5045878;28;20569;-53
2023/09/13 07:16:53;;;;;;;0.80;0.60;;;;;;;25.42;46.25;95704.16;5071162;28;20452;-54
2023/09/13 07:19:21;;;;;;;0.60;0.43;;;;;;;25.88;46.48;95699.72;5071040;28;20441;-53
2023/09/13 07:21:50;;;;;;;0.50;0.50;;;;;;;26.30;46.32;95695.16;5070634;28;20437;-53
2023/09/13 07:24:18;;;;;;;0.73;0.63;;;;;;;26.34;44.79;95698.72;5071262;28;20437;-53
2023/09/13 07:26:48;;;;;;;0.50;0.40;;;;;;;27.34;44.18;95688.38;5071273;28;20792;-53
2023/09/13 07:29:18;;;;;;;0.60;0.53;;;;;;;27.17;42.94;95689.69;5071453;28;20512;-52
2023/09/13 07:31:46;;;;;;;0.50;0.40;;;;;;;27.41;42.99;95683.84;5071313;28;20534;-53
2023/09/13 07:34:15;;;;;;;0.60;0.60;;;;;;;27.63;42.10;95693.88;5071281;28;21034;-52
2023/09/13 07:36:59;;;;;;;0.63;0.63;;;;;;;28.08;41.79;95690.16;5070608;28;20448;-52
2023/09/13 07:39:28;;;;;;;1.37;1.37;;;;;;;28.47;42.21;95681.63;5070930;28;20471;-52
2023/09/13 07:41:58;;;;;;;1.50;1.20;;;;;;;27.50;41.48;95689.03;5069789;28;20449;-52
2023/09/13 07:44:27;;;;;;;0.40;0.40;;;;;;;28.36;42.28;95692.41;5071164;28;20470;-51
2023/09/13 07:46:55;;;;;;;0.40;0.30;;;;;;;28.47;42.09;95687.09;5044466;28;20445;-52
2023/09/13 07:49:25;;;;;;;0.40;0.30;;;;;;;28.47;41.54;95682.41;5070290;28;20499;-52
2023/09/13 07:51:53;;;;;;;1.17;0.60;;;;;;;28.87;42.18;95681.63;5074354;28;20925;-51
2023/09/13 07:54:22;;;;;;;0.50;0.40;;;;;;;29.38;40.04;95682.44;5075143;28;20486;-52
2023/09/13 07:56:50;;;;;;;0.50;0.50;;;;;;;30.06;38.53;95676.19;5074874;28;20525;-52
2023/09/13 07:59:20;;;;;;;0.87;0.87;;;;;;;30.46;38.23;95680.63;5074958;28;20559;-51
2023/09/13 08:01:51;;;;;;;0.60;0.53;;;;;;;29.87;37.46;95681.97;5075267;28;20467;-51
2023/09/13 08:04:19;;;;;;;0.40;0.30;;;;;;;29.91;36.92;95641.75;5074047;28;21083;-51
2023/09/13 08:06:48;;;;;;;0.40;0.30;;;;;;;29.06;37.80;95632.28;5074740;28;20476;-51
2023/09/13 08:09:16;;;;;;;0.40;0.40;;;;;;;29.75;38.19;95645.97;5074486;28;20441;-51
2023/09/13 08:11:47;;;;;;;0.50;0.30;;;;;;;29.96;37.41;95666.00;5074411;28;20437;-50
2023/09/13 08:14:15;;;;;;;0.60;0.50;;;;;;;30.38;38.19;95670.06;5074025;28;20444;-50
2023/09/13 08:16:45;;;;;;;0.40;0.30;;;;;;;30.82;37.25;95662.28;5074786;28;20589;-51
2023/09/13 08:19:13;;;;;;;0.70;0.60;;;;;;;30.61;35.73;95663.03;5074596;28;20589;-51
2023/09/13 08:21:42;;;;;;;0.70;0.57;;;;;;;31.35;35.94;95646.63;5074283;28;20451;-51
2023/09/13 08:24:10;;;;;;;0.50;0.50;;;;;;;31.79;34.43;95648.91;5074195;28;20806;-51
2023/09/13 08:26:38;;;;;;;0.50;0.50;;;;;;;31.72;34.82;95642.66;5073680;28;20529;-52
2023/09/13 08:29:07;;;;;;;0.70;0.60;;;;;;;31.70;36.62;95642.28;5074348;28;20436;-51
2023/09/13 08:31:35;;;;;;;1.33;1.23;;;;;;;31.68;34.06;95639.13;5073763;28;20441;-52
2023/09/13 08:34:05;;;;;;;0.60;0.43;;;;;;;31.28;35.19;95630.22;5074290;28;20475;-52
2023/09/13 08:36:34;;;;;;;0.47;0.40;;;;;;;31.68;35.50;95633.66;5073919;28;20444;-51
2023/09/13 08:39:05;;;;;;;0.50;0.50;;;;;;;31.42;33.55;95624.69;5073759;28;20535;-51
2023/09/13 08:41:33;;;;;;;0.63;0.63;;;;;;;31.10;33.28;95629.47;5073652;28;20443;-50
2023/09/13 08:44:05;;;;;;;2.20;0.83;;;;;;;31.67;34.18;95630.16;5074064;28;20497;-51
2023/09/13 08:46:35;;;;;;;0.40;0.30;;;;;;;32.37;32.49;95601.59;5074136;28;20521;-51
2023/09/13 08:49:07;;;;;;;0.40;0.30;;;;;;;32.92;31.72;95622.75;5073437;28;20447;-52
2023/09/13 08:51:37;;;;;;;0.83;0.83;;;;;;;33.35;32.98;95615.72;5074280;28;20428;-51
2023/09/13 08:54:06;;;;;;;0.30;0.20;;;;;;;33.87;33.12;95602.59;5073988;28;20447;-52
2023/09/13 08:56:36;;;;;;;0.40;0.30;;;;;;;34.04;31.67;95609.03;5048179;28;20440;-52
2023/09/13 08:59:05;;;;;;;0.40;0.40;;;;;;;32.96;31.87;95609.81;5073641;28;20440;-52
2023/09/13 09:01:34;;;;;;;4.27;0.77;;;;;;;32.55;31.64;95605.03;5072985;28;20441;-52
2023/09/13 09:04:03;;;;;;;3.03;0.30;;;;;;;33.13;31.69;95608.88;5073891;28;20490;-52
2023/09/13 09:06:33;;;;;;;0.70;0.70;;;;;;;33.42;31.20;95604.63;5073545;28;21076;-52
2023/09/13 09:09:04;;;;;;;0.40;0.40;;;;;;;34.00;30.24;95589.84;5072940;28;20444;-52
2023/09/13 09:11:34;;;;;;;1.13;0.60;;;;;;;34.05;30.41;95594.09;5073554;28;20444;-52
2023/09/13 09:14:03;;;;;;;0.50;0.50;;;;;;;33.88;31.37;95588.41;5073219;28;20988;-52
2023/09/13 09:16:32;;;;;;;0.53;0.40;;;;;;;33.57;30.18;95595.09;5073586;28;20444;-52
2023/09/13 09:19:04;;;;;;;0.40;0.30;;;;;;;34.42;30.63;95586.50;5073002;28;20440;-52
2023/09/13 09:21:35;;;;;;;0.50;0.47;;;;;;;34.62;29.55;95586.63;5073722;28;20913;-52
2023/09/13 09:24:03;;;;;;;0.43;0.30;;;;;;;33.93;30.35;95584.41;5073300;28;20441;-52
2023/09/13 09:26:32;;;;;;;0.37;0.30;;;;;;;34.42;31.46;95583.75;5073234;28;20526;-53
2023/09/13 09:29:11;;;;;;;0.40;0.37;;;;;;;34.91;30.37;95575.91;5073120;28;20468;-53
2023/09/13 09:31:39;;;;;;;0.53;0.50;;;;;;;34.14;30.73;95578.66;5073096;28;20440;-56
2023/09/13 09:34:10;;;;;;;1.40;0.70;;;;;;;35.14;29.38;95575.16;5073053;28;20471;-52
2023/09/13 09:36:44;;;;;;;0.40;0.33;;;;;;;35.01;30.14;95514.34;5072640;28;20440;-53
2023/09/13 09:39:15;;;;;;;0.30;0.27;;;;;;;36.00;29.36;95542.75;5072054;28;20444;-53
2023/09/13 09:41:43;;;;;;;0.53;0.50;;;;;;;35.53;30.04;95536.59;5073085;28;20429;-53
2023/09/13 09:44:12;;;;;;;0.40;0.40;;;;;;;35.77;29.47;95564.88;5072594;28;20440;-53
2023/09/13 09:46:40;;;;;;;0.40;0.30;;;;;;;36.44;28.91;95560.63;5073035;28;20475;-52
2023/09/13 09:49:09;;;;;;;0.50;0.50;;;;;;;34.76;29.87;95567.09;5072969;28;20444;-51
2023/09/13 09:51:39;;;;;;;0.60;0.50;;;;;;;33.68;31.14;95556.47;5072615;28;20498;-52
2023/09/13 09:54:09;;;;;;;0.40;0.30;;;;;;;34.49;31.01;95549.81;5072951;28;20198;-52
2023/09/13 09:56:37;;;;;;;0.40;0.40;;;;;;;34.99;30.14;95549.81;5045954;28;20531;-52
2023/09/13 09:59:06;;;;;;;0.40;0.30;;;;;;;34.28;31.42;95544.66;5072544;28;20526;-53
2023/09/13 10:01:38;;;;;;;0.80;0.80;;;;;;;34.88;32.60;95541.72;5072828;28;20437;-54
2023/09/13 10:04:11;;;;;;;0.40;0.40;;;;;;;35.20;30.85;95535.66;5072230;28;20494;-54
2023/09/13 10:06:57;;;;;;;0.40;0.40;;;;;;;36.16;29.92;95537.22;5072385;28;20469;-53
2023/09/13 10:09:37;;;;;;;0.40;0.30;;;;;;;36.18;29.85;95532.84;5071769;28;20443;-53
2023/09/13 10:12:08;;;;;;;0.60;0.60;;;;;;;35.33;29.86;95528.31;5071530;28;20194;-53
2023/09/13 10:14:38;;;;;;;1.13;0.40;;;;;;;35.69;29.70;95529.19;5071632;28;20202;-53
2023/09/13 10:17:07;;;;;;;0.70;0.70;;;;;;;35.68;29.90;95519.34;5071643;28;20202;-53
2023/09/13 10:19:36;;;;;;;0.57;0.40;;;;;;;35.70;30.05;95494.88;5071910;28;20585;-53
2023/09/13 10:22:05;;;;;;;0.40;0.30;;;;;;;36.33;29.93;95521.47;5071926;28;20190;-53
2023/09/13 10:24:40;;;;;;;0.40;0.30;;;;;;;37.26;29.34;95508.47;5071950;28;20251;-54
2023/09/13 10:27:09;;;;;;;0.50;0.50;;;;;;;36.17;28.90;95506.47;5071556;28;20304;-54
2023/09/13 10:29:41;;;;;;;0.50;0.30;;;;;;;36.28;29.42;95495.94;5071976;28;20221;-54
2023/09/13 10:32:12;;;;;;;0.87;0.87;;;;;;;36.96;30.04;95508.88;5071546;28;20244;-54
2023/09/13 10:34:48;;;;;;;0.57;0.57;;;;;;;37.28;29.03;95463.78;5071367;28;20293;-54
2023/09/13 10:37:29;;;;;;;0.60;0.47;;;;;;;38.49;27.92;95501.22;5071593;28;20193;-54
2023/09/13 10:40:10;;;;;;;0.77;0.40;;;;;;;37.22;28.55;95501.44;5072006;28;20193;-54
2023/09/13 10:42:40;;;;;;;0.47;0.47;;;;;;;37.47;28.51;95502.34;5072369;28;20201;-54
2023/09/13 10:45:17;;;;;;;0.30;0.30;;;;;;;37.83;28.52;95487.44;5071914;28;20194;-54
2023/09/13 10:47:47;;;;;;;0.50;0.50;;;;;;;37.13;30.26;95490.25;5071385;28;20250;-54
2023/09/13 10:50:17;;;;;;;0.57;0.50;;;;;;;36.74;28.90;95477.44;5072390;28;20194;-55
2023/09/13 10:52:46;;;;;;;0.80;0.63;;;;;;;36.00;29.41;95446.91;5071585;28;20677;-54
2023/09/13 10:55:17;;;;;;;0.30;0.20;;;;;;;36.49;29.61;95478.09;5071588;28;20209;-54
2023/09/13 10:57:47;;;;;;;0.40;0.30;;;;;;;36.98;29.34;95465.00;5071584;28;20202;-55
2023/09/13 11:00:16;;;;;;;0.40;0.35;;;;;;;38.01;28.46;95471.09;5072063;28;20720;-55
2023/09/13 11:02:46;;;;;;;0.30;0.20;;;;;;;38.85;27.99;95464.81;5071249;28;20195;-53
2023/09/13 11:05:19;;;;;;;0.30;0.30;;;;;;;38.65;28.32;95473.38;5071981;28;20259;-54
2023/09/13 11:07:48;;;;;;;0.40;0.40;;;;;;;38.58;27.81;95464.53;5071271;28;20214;-54
2023/09/13 11:10:20;;;;;;;0.30;0.30;;;;;;;38.84;26.85;95456.97;5071531;28;20198;-54
2023/09/13 11:12:50;;;;;;;0.40;0.30;;;;;;;38.99;27.02;95458.00;5071522;28;20556;-54
2023/09/13 11:15:23;;;;;;;0.60;0.43;;;;;;;39.10;27.10;95444.53;5070776;28;20194;-54
2023/09/13 11:17:54;;;;;;;0.38;0.32;;;;;;;39.14;27.35;95436.88;5071857;28;20586;-55
2023/09/13 11:20:24;;;;;;;0.50;0.50;;;;;;;37.88;27.22;95182.53;5070668;28;20238;-55
2023/09/13 11:23:08;;;;;;;0.30;0.20;;;;;;;39.96;26.05;95433.34;5071102;28;20198;-54
2023/09/13 11:26:04;;;;;;;0.30;0.30;;;;;;;39.95;25.75;95431.00;5071148;28;20198;-55
2023/09/13 11:28:48;;;;;;;0.30;0.28;;;;;;;40.08;25.64;95417.81;5070702;28;20683;-55
2023/09/13 11:31:21;;;;;;;0.40;0.40;;;;;;;39.88;25.97;95420.97;5071181;28;20202;-54
2023/09/13 11:33:57;;;;;;;0.40;0.40;;;;;;;39.50;25.61;95412.13;5044227;28;20194;-54
2023/09/13 11:36:27;;;;;;;0.28;0.20;;;;;;;39.59;25.81;95420.53;5071268;28;20255;-54
2023/09/13 11:39:01;;;;;;;1.48;0.50;;;;;;;38.39;28.38;95396.31;5063204;28;20270;-55
2023/09/13 11:41:38;;;;;;;0.52;0.40;;;;;;;37.92;25.88;95418.44;5066882;28;20238;-54
2023/09/13 11:44:22;;;;;;;0.30;0.30;;;;;;;38.51;26.60;95399.06;5071096;28;20234;-55
2023/09/13 11:47:01;;;;;;;0.40;0.40;;;;;;;39.06;27.69;95396.75;5047612;28;20279;-55
2023/09/13 11:49:31;;;;;;;0.52;0.50;;;;;;;37.92;25.40;95316.03;5070954;28;20202;-55